sensor_id;sensor_type;location;lat;lon;timestamp;pressure;altitude;pressure_sealevel;temperature;humidity
34674;BME280;20879;55.668;37.858;2024-02-26T00:00:58;100932.44;;;-1.46;62.11
34674;BME280;20879;55.668;37.858;2024-02-26T00:06:14;100926.41;;;-1.48;61.81
34674;BME280;20879;55.668;37.858;2024-02-26T00:11:27;100922.81;;;-1.51;61.84
34674;BME280;20879;55.668;37.858;2024-02-26T00:16:40;100925.03;;;-1.58;61.84
34674;BME280;20879;55.668;37.858;2024-02-26T00:21:47;100911.56;;;-1.56;61.74
34674;BME280;20879;55.668;37.858;2024-02-26T00:26:59;100918.75;;;-1.64;61.86
34674;BME280;20879;55.668;37.858;2024-02-26T00:32:11;100923.25;;;-1.75;62.23
34674;BME280;20879;55.668;37.858;2024-02-26T00:37:19;100919.28;;;-1.70;62.14
34674;BME280;20879;55.668;37.858;2024-02-26T00:42:26;100913.34;;;-1.70;62.19
34674;BME280;20879;55.668;37.858;2024-02-26T00:47:42;100910.34;;;-1.63;62.12
34674;BME280;20879;55.668;37.858;2024-02-26T00:52:52;100898.88;;;-1.71;62.29
34674;BME280;20879;55.668;37.858;2024-02-26T00:57:59;100909.63;;;-1.77;62.20
34674;BME280;20879;55.668;37.858;2024-02-26T01:03:12;100902.72;;;-1.80;62.55
34674;BME280;20879;55.668;37.858;2024-02-26T01:08:28;100896.88;;;-1.94;61.95
34674;BME280;20879;55.668;37.858;2024-02-26T01:13:35;100896.91;;;-2.08;62.70
34674;BME280;20879;55.668;37.858;2024-02-26T01:18:45;100902.69;;;-2.11;62.86
34674;BME280;20879;55.668;37.858;2024-02-26T01:23:55;100904.97;;;-2.16;63.07
34674;BME280;20879;55.668;37.858;2024-02-26T01:29:00;100908.66;;;-2.11;62.81
34674;BME280;20879;55.668;37.858;2024-02-26T01:34:10;100893.06;;;-2.02;62.96
34674;BME280;20879;55.668;37.858;2024-02-26T01:39:19;100899.50;;;-1.92;62.69
34674;BME280;20879;55.668;37.858;2024-02-26T01:44:26;100889.34;;;-1.92;62.34
34674;BME280;20879;55.668;37.858;2024-02-26T01:49:44;100891.94;;;-1.90;62.40
34674;BME280;20879;55.668;37.858;2024-02-26T01:54:57;100886.72;;;-1.94;62.21
34674;BME280;20879;55.668;37.858;2024-02-26T02:00:08;100885.53;;;-2.00;62.30
34674;BME280;20879;55.668;37.858;2024-02-26T02:05:16;100879.38;;;-2.04;62.11
34674;BME280;20879;55.668;37.858;2024-02-26T02:10:29;100873.44;;;-2.04;62.20
34674;BME280;20879;55.668;37.858;2024-02-26T02:15:41;100883.94;;;-1.98;62.65
34674;BME280;20879;55.668;37.858;2024-02-26T02:20:53;100890.06;;;-1.95;62.41
34674;BME280;20879;55.668;37.858;2024-02-26T02:25:59;100868.66;;;-2.15;61.99
34674;BME280;20879;55.668;37.858;2024-02-26T02:31:15;100887.81;;;-2.20;62.30
34674;BME280;20879;55.668;37.858;2024-02-26T02:36:32;100863.47;;;-2.33;62.65
34674;BME280;20879;55.668;37.858;2024-02-26T02:41:38;100874.75;;;-2.42;62.48
34674;BME280;20879;55.668;37.858;2024-02-26T02:46:45;100869.28;;;-2.50;62.64
34674;BME280;20879;55.668;37.858;2024-02-26T02:51:52;100874.69;;;-2.59;63.04
34674;BME280;20879;55.668;37.858;2024-02-26T02:57:01;100845.06;;;-2.75;63.28
34674;BME280;20879;55.668;37.858;2024-02-26T03:02:14;100877.22;;;-2.59;63.25
34674;BME280;20879;55.668;37.858;2024-02-26T03:07:26;100880.72;;;-2.57;63.30
34674;BME280;20879;55.668;37.858;2024-02-26T03:12:31;100859.66;;;-2.71;63.29
34674;BME280;20879;55.668;37.858;2024-02-26T03:17:49;100872.50;;;-2.68;63.36
34674;BME280;20879;55.668;37.858;2024-02-26T03:22:57;100874.97;;;-2.69;63.40
34674;BME280;20879;55.668;37.858;2024-02-26T03:28:03;100865.00;;;-2.81;63.50
34674;BME280;20879;55.668;37.858;2024-02-26T03:33:16;100874.50;;;-2.92;63.88
34674;BME280;20879;55.668;37.858;2024-02-26T03:38:42;100861.41;;;-3.00;63.69
34674;BME280;20879;55.668;37.858;2024-02-26T03:43:52;100866.72;;;-2.95;63.97
34674;BME280;20879;55.668;37.858;2024-02-26T03:49:00;100871.63;;;-2.98;63.96
34674;BME280;20879;55.668;37.858;2024-02-26T03:59:31;100881.41;;;-3.04;64.30
34674;BME280;20879;55.668;37.858;2024-02-26T04:04:43;100876.00;;;-3.10;64.61
34674;BME280;20879;55.668;37.858;2024-02-26T04:09:50;100858.84;;;-3.14;64.51
34674;BME280;20879;55.668;37.858;2024-02-26T04:14:57;100864.72;;;-3.01;64.73
34674;BME280;20879;55.668;37.858;2024-02-26T04:20:15;100869.69;;;-3.02;64.79
34674;BME280;20879;55.668;37.858;2024-02-26T04:25:31;100867.75;;;-3.06;64.97
34674;BME280;20879;55.668;37.858;2024-02-26T04:30:39;100876.44;;;-3.03;65.13
34674;BME280;20879;55.668;37.858;2024-02-26T04:35:58;100880.19;;;-2.96;65.34
34674;BME280;20879;55.668;37.858;2024-02-26T04:41:08;100876.59;;;-3.00;65.38
34674;BME280;20879;55.668;37.858;2024-02-26T04:46:15;100883.44;;;-2.99;65.40
34674;BME280;20879;55.668;37.858;2024-02-26T04:51:25;100881.25;;;-2.92;65.41
34674;BME280;20879;55.668;37.858;2024-02-26T04:56:46;100870.94;;;-2.81;65.19
34674;BME280;20879;55.668;37.858;2024-02-26T05:01:53;100885.25;;;-2.96;65.66
34674;BME280;20879;55.668;37.858;2024-02-26T05:06:59;100876.09;;;-2.94;65.52
34674;BME280;20879;55.668;37.858;2024-02-26T05:12:05;100857.78;;;-3.03;65.47
34674;BME280;20879;55.668;37.858;2024-02-26T05:17:12;100862.44;;;-2.96;66.00
34674;BME280;20879;55.668;37.858;2024-02-26T05:22:18;100870.75;;;-2.84;66.11
34674;BME280;20879;55.668;37.858;2024-02-26T05:27:25;100875.81;;;-2.69;65.55
34674;BME280;20879;55.668;37.858;2024-02-26T05:32:33;100884.84;;;-2.59;65.73
34674;BME280;20879;55.668;37.858;2024-02-26T05:37:40;100865.84;;;-2.51;65.19
34674;BME280;20879;55.668;37.858;2024-02-26T05:42:46;100870.53;;;-2.42;65.41
34674;BME280;20879;55.668;37.858;2024-02-26T05:47:58;100876.97;;;-2.17;65.10
34674;BME280;20879;55.668;37.858;2024-02-26T05:53:12;100872.75;;;-2.02;64.72
34674;BME280;20879;55.668;37.858;2024-02-26T05:58:20;100854.22;;;-2.16;64.56
34674;BME280;20879;55.668;37.858;2024-02-26T06:03:30;100873.47;;;-1.88;64.20
34674;BME280;20879;55.668;37.858;2024-02-26T06:08:36;100871.63;;;-1.76;63.86
34674;BME280;20879;55.668;37.858;2024-02-26T06:13:42;100874.09;;;-1.61;63.90
34674;BME280;20879;55.668;37.858;2024-02-26T06:18:54;100875.13;;;-1.41;62.89
34674;BME280;20879;55.668;37.858;2024-02-26T06:24:03;100888.63;;;-1.42;62.89
34674;BME280;20879;55.668;37.858;2024-02-26T06:29:21;100881.31;;;-1.52;62.89
34674;BME280;20879;55.668;37.858;2024-02-26T06:34:37;100850.56;;;-1.73;62.86
34674;BME280;20879;55.668;37.858;2024-02-26T06:39:48;100876.06;;;-1.22;62.86
34674;BME280;20879;55.668;37.858;2024-02-26T06:44:55;100869.81;;;-1.29;62.72
34674;BME280;20879;55.668;37.858;2024-02-26T06:50:11;100869.94;;;-1.26;62.07
34674;BME280;20879;55.668;37.858;2024-02-26T06:55:17;100860.78;;;-1.06;62.03
34674;BME280;20879;55.668;37.858;2024-02-26T07:00:35;100879.19;;;-0.93;61.22
34674;BME280;20879;55.668;37.858;2024-02-26T07:06:05;100885.69;;;-0.82;61.63
34674;BME280;20879;55.668;37.858;2024-02-26T07:11:15;100876.56;;;-0.60;61.28
34674;BME280;20879;55.668;37.858;2024-02-26T07:16:27;100851.06;;;-0.44;61.39
34674;BME280;20879;55.668;37.858;2024-02-26T07:21:43;100853.75;;;-0.41;61.43
34674;BME280;20879;55.668;37.858;2024-02-26T07:27:04;100855.72;;;-0.17;60.22
34674;BME280;20879;55.668;37.858;2024-02-26T07:32:13;100846.97;;;-0.04;59.87
34674;BME280;20879;55.668;37.858;2024-02-26T07:37:29;100850.56;;;0.19;60.19
34674;BME280;20879;55.668;37.858;2024-02-26T07:42:35;100854.44;;;0.30;60.05
34674;BME280;20879;55.668;37.858;2024-02-26T07:47:50;100851.50;;;0.41;59.02
34674;BME280;20879;55.668;37.858;2024-02-26T07:52:59;100865.72;;;0.36;59.20
34674;BME280;20879;55.668;37.858;2024-02-26T07:58:23;100866.41;;;0.71;59.30
34674;BME280;20879;55.668;37.858;2024-02-26T08:03:40;100853.38;;;0.84;58.77
34674;BME280;20879;55.668;37.858;2024-02-26T08:08:49;100847.47;;;0.65;58.21
34674;BME280;20879;55.668;37.858;2024-02-26T08:14:00;100859.50;;;0.48;59.46
34674;BME280;20879;55.668;37.858;2024-02-26T08:19:12;100852.31;;;0.59;58.79
34674;BME280;20879;55.668;37.858;2024-02-26T08:24:20;100859.19;;;0.81;58.23
34674;BME280;20879;55.668;37.858;2024-02-26T08:29:28;100854.75;;;1.18;58.27
34674;BME280;20879;55.668;37.858;2024-02-26T08:34:39;100847.28;;;1.22;57.47
34674;BME280;20879;55.668;37.858;2024-02-26T08:39:55;100843.34;;;1.52;57.54
34674;BME280;20879;55.668;37.858;2024-02-26T08:45:09;100844.19;;;1.51;57.53
34674;BME280;20879;55.668;37.858;2024-02-26T08:50:15;100840.94;;;1.55;56.69
34674;BME280;20879;55.668;37.858;2024-02-26T08:55:28;100839.31;;;1.36;56.59
34674;BME280;20879;55.668;37.858;2024-02-26T09:00:35;100841.94;;;1.37;57.77
34674;BME280;20879;55.668;37.858;2024-02-26T09:05:48;100824.81;;;1.79;56.47
34674;BME280;20879;55.668;37.858;2024-02-26T09:10:57;100818.84;;;1.78;55.17
34674;BME280;20879;55.668;37.858;2024-02-26T09:16:16;100831.22;;;1.46;55.98
34674;BME280;20879;55.668;37.858;2024-02-26T09:21:22;100822.59;;;1.43;56.41
34674;BME280;20879;55.668;37.858;2024-02-26T09:26:40;100820.63;;;1.58;56.47
34674;BME280;20879;55.668;37.858;2024-02-26T09:31:58;100834.69;;;1.69;56.18
34674;BME280;20879;55.668;37.858;2024-02-26T09:37:16;100819.59;;;1.53;56.38
34674;BME280;20879;55.668;37.858;2024-02-26T09:42:32;100831.56;;;1.77;55.52
34674;BME280;20879;55.668;37.858;2024-02-26T09:47:41;100806.13;;;2.02;55.86
34674;BME280;20879;55.668;37.858;2024-02-26T09:52:48;100818.91;;;2.02;55.00
34674;BME280;20879;55.668;37.858;2024-02-26T09:58:08;100818.91;;;1.80;55.03
34674;BME280;20879;55.668;37.858;2024-02-26T10:03:28;100820.28;;;1.49;55.58
34674;BME280;20879;55.668;37.858;2024-02-26T10:08:35;100823.88;;;1.54;55.74
34674;BME280;20879;55.668;37.858;2024-02-26T10:13:50;100810.75;;;1.45;55.60
34674;BME280;20879;55.668;37.858;2024-02-26T10:19:00;100824.50;;;1.92;55.52
34674;BME280;20879;55.668;37.858;2024-02-26T10:24:16;100811.47;;;1.86;54.98
34674;BME280;20879;55.668;37.858;2024-02-26T10:29:36;100806.25;;;1.83;54.65
34674;BME280;20879;55.668;37.858;2024-02-26T10:34:48;100812.16;;;1.59;55.48
34674;BME280;20879;55.668;37.858;2024-02-26T10:39:56;100771.66;;;1.23;55.61
34674;BME280;20879;55.668;37.858;2024-02-26T10:45:19;100801.63;;;1.08;56.07
34674;BME280;20879;55.668;37.858;2024-02-26T10:50:25;100796.41;;;1.04;56.60
34674;BME280;20879;55.668;37.858;2024-02-26T10:55:35;100800.13;;;1.13;56.69
34674;BME280;20879;55.668;37.858;2024-02-26T11:01:00;100794.44;;;1.20;56.93
34674;BME280;20879;55.668;37.858;2024-02-26T11:06:22;100775.63;;;1.16;57.07
34674;BME280;20879;55.668;37.858;2024-02-26T11:11:31;100794.63;;;1.46;56.45
34674;BME280;20879;55.668;37.858;2024-02-26T11:16:43;100778.84;;;1.33;56.69
34674;BME280;20879;55.668;37.858;2024-02-26T11:21:53;100771.66;;;1.23;56.86
34674;BME280;20879;55.668;37.858;2024-02-26T11:27:06;100766.66;;;1.49;56.87
34674;BME280;20879;55.668;37.858;2024-02-26T11:32:15;100757.78;;;1.84;55.97
34674;BME280;20879;55.668;37.858;2024-02-26T11:37:53;100740.72;;;1.83;55.47
34674;BME280;20879;55.668;37.858;2024-02-26T11:43:10;100777.16;;;2.02;55.83
34674;BME280;20879;55.668;37.858;2024-02-26T11:48:20;100777.22;;;1.81;56.20
34674;BME280;20879;55.668;37.858;2024-02-26T11:53:28;100765.13;;;1.52;57.33
34674;BME280;20879;55.668;37.858;2024-02-26T11:58:35;100760.94;;;1.32;57.23
34674;BME280;20879;55.668;37.858;2024-02-26T12:03:51;100751.19;;;1.44;57.02
34674;BME280;20879;55.668;37.858;2024-02-26T12:09:03;100757.28;;;1.70;56.70
34674;BME280;20879;55.668;37.858;2024-02-26T12:14:10;100754.50;;;1.64;56.73
34674;BME280;20879;55.668;37.858;2024-02-26T12:19:17;100749.13;;;1.58;56.22
34674;BME280;20879;55.668;37.858;2024-02-26T12:24:28;100746.19;;;1.47;56.36
34674;BME280;20879;55.668;37.858;2024-02-26T12:29:33;100725.50;;;1.18;56.87
34674;BME280;20879;55.668;37.858;2024-02-26T12:34:49;100745.53;;;0.86;57.08
34674;BME280;20879;55.668;37.858;2024-02-26T12:48:09;100748.53;;;-0.04;57.84
34674;BME280;20879;55.668;37.858;2024-02-26T12:53:15;100749.69;;;0.03;58.24
34674;BME280;20879;55.668;37.858;2024-02-26T12:58:31;100741.34;;;0.27;57.36
34674;BME280;20879;55.668;37.858;2024-02-26T13:03:41;100735.97;;;0.40;56.53
34674;BME280;20879;55.668;37.858;2024-02-26T13:08:56;100743.63;;;0.61;55.80
34674;BME280;20879;55.668;37.858;2024-02-26T13:14:19;100728.47;;;0.64;54.51
34674;BME280;20879;55.668;37.858;2024-02-26T13:19:30;100731.97;;;0.47;55.33
34674;BME280;20879;55.668;37.858;2024-02-26T13:24:39;100746.59;;;0.51;54.66
34674;BME280;20879;55.668;37.858;2024-02-26T13:30:02;100736.31;;;0.28;53.37
34674;BME280;20879;55.668;37.858;2024-02-26T13:35:21;100751.88;;;0.15;53.90
34674;BME280;20879;55.668;37.858;2024-02-26T13:40:36;100724.28;;;0.05;53.45
34674;BME280;20879;55.668;37.858;2024-02-26T13:45:42;100744.91;;;0.11;53.85
34674;BME280;20879;55.668;37.858;2024-02-26T13:50:56;100742.38;;;-0.09;53.46
34674;BME280;20879;55.668;37.858;2024-02-26T13:56:14;100749.56;;;-0.18;53.81
34674;BME280;20879;55.668;37.858;2024-02-26T14:01:35;100753.88;;;-0.17;53.78
34674;BME280;20879;55.668;37.858;2024-02-26T14:06:42;100750.63;;;-0.32;53.23
34674;BME280;20879;55.668;37.858;2024-02-26T14:11:55;100754.91;;;-0.51;53.20
34674;BME280;20879;55.668;37.858;2024-02-26T14:17:01;100740.88;;;-0.79;54.18
34674;BME280;20879;55.668;37.858;2024-02-26T14:22:08;100761.22;;;-0.79;53.95
34674;BME280;20879;55.668;37.858;2024-02-26T14:27:14;100757.00;;;-0.96;54.44
34674;BME280;20879;55.668;37.858;2024-02-26T14:32:21;100735.28;;;-1.08;54.40
34674;BME280;20879;55.668;37.858;2024-02-26T14:37:28;100768.53;;;-1.21;54.83
34674;BME280;20879;55.668;37.858;2024-02-26T14:42:36;100768.00;;;-1.48;55.21
34674;BME280;20879;55.668;37.858;2024-02-26T14:47:48;100770.50;;;-1.83;56.17
34674;BME280;20879;55.668;37.858;2024-02-26T14:52:58;100772.63;;;-2.07;56.62
34674;BME280;20879;55.668;37.858;2024-02-26T14:58:15;100750.38;;;-2.44;57.07
34674;BME280;20879;55.668;37.858;2024-02-26T15:03:32;100777.13;;;-2.34;57.23
34674;BME280;20879;55.668;37.858;2024-02-26T15:08:40;100772.00;;;-2.51;57.30
34674;BME280;20879;55.668;37.858;2024-02-26T15:13:53;100778.63;;;-2.69;57.75
34674;BME280;20879;55.668;37.858;2024-02-26T15:19:06;100783.25;;;-2.77;58.07
34674;BME280;20879;55.668;37.858;2024-02-26T15:24:24;100778.72;;;-2.97;58.16
34674;BME280;20879;55.668;37.858;2024-02-26T15:29:31;100791.13;;;-3.02;58.37
34674;BME280;20879;55.668;37.858;2024-02-26T15:34:49;100786.00;;;-3.19;58.68
34674;BME280;20879;55.668;37.858;2024-02-26T15:40:09;100779.78;;;-3.24;59.02
34674;BME280;20879;55.668;37.858;2024-02-26T15:45:19;100795.66;;;-3.41;59.20
34674;BME280;20879;55.668;37.858;2024-02-26T15:50:35;100786.31;;;-3.57;59.52
34674;BME280;20879;55.668;37.858;2024-02-26T15:55:42;100766.63;;;-3.76;59.95
34674;BME280;20879;55.668;37.858;2024-02-26T16:00:52;100795.25;;;-3.77;60.10
34674;BME280;20879;55.668;37.858;2024-02-26T16:06:22;100786.34;;;-3.99;60.32
34674;BME280;20879;55.668;37.858;2024-02-26T16:11:35;100796.66;;;-3.96;60.17
34674;BME280;20879;55.668;37.858;2024-02-26T16:16:47;100796.97;;;-4.05;60.71
34674;BME280;20879;55.668;37.858;2024-02-26T16:21:55;100804.66;;;-4.03;60.47
34674;BME280;20879;55.668;37.858;2024-02-26T16:27:02;100794.25;;;-4.08;61.17
34674;BME280;20879;55.668;37.858;2024-02-26T16:32:14;100809.53;;;-4.06;60.90
34674;BME280;20879;55.668;37.858;2024-02-26T16:37:22;100809.34;;;-4.09;61.49
34674;BME280;20879;55.668;37.858;2024-02-26T16:42:31;100813.03;;;-4.04;61.19
34674;BME280;20879;55.668;37.858;2024-02-26T16:47:48;100809.22;;;-3.97;61.44
34674;BME280;20879;55.668;37.858;2024-02-26T16:52:58;100792.03;;;-3.88;61.07
34674;BME280;20879;55.668;37.858;2024-02-26T16:58:18;100795.16;;;-3.79;61.21
34674;BME280;20879;55.668;37.858;2024-02-26T17:03:27;100795.41;;;-3.74;61.11
34674;BME280;20879;55.668;37.858;2024-02-26T17:08:58;100760.69;;;-4.05;61.97
34674;BME280;20879;55.668;37.858;2024-02-26T17:14:14;100808.31;;;-3.84;61.59
34674;BME280;20879;55.668;37.858;2024-02-26T17:19:25;100807.31;;;-3.87;62.02
34674;BME280;20879;55.668;37.858;2024-02-26T17:24:37;100791.78;;;-3.93;61.75
34674;BME280;20879;55.668;37.858;2024-02-26T17:29:48;100795.47;;;-3.88;62.16
34674;BME280;20879;55.668;37.858;2024-02-26T17:34:55;100793.94;;;-3.99;62.21
34674;BME280;20879;55.668;37.858;2024-02-26T17:40:01;100786.84;;;-4.05;62.35
34674;BME280;20879;55.668;37.858;2024-02-26T17:45:14;100796.28;;;-4.02;62.38
34674;BME280;20879;55.668;37.858;2024-02-26T17:50:29;100802.22;;;-4.01;62.62
34674;BME280;20879;55.668;37.858;2024-02-26T17:55:40;100803.38;;;-3.96;62.67
34674;BME280;20879;55.668;37.858;2024-02-26T18:01:06;100809.97;;;-3.85;62.54
34674;BME280;20879;55.668;37.858;2024-02-26T18:06:11;100811.19;;;-3.78;62.58
34674;BME280;20879;55.668;37.858;2024-02-26T18:11:18;100821.50;;;-3.75;62.65
34674;BME280;20879;55.668;37.858;2024-02-26T18:16:32;100814.81;;;-3.75;62.33
34674;BME280;20879;55.668;37.858;2024-02-26T18:21:38;100818.03;;;-3.77;62.59
34674;BME280;20879;55.668;37.858;2024-02-26T18:26:49;100808.50;;;-3.81;62.86
34674;BME280;20879;55.668;37.858;2024-02-26T18:32:09;100813.97;;;-3.89;63.01
34674;BME280;20879;55.668;37.858;2024-02-26T18:37:14;100817.69;;;-4.10;63.46
34674;BME280;20879;55.668;37.858;2024-02-26T18:42:27;100816.41;;;-4.32;63.97
34674;BME280;20879;55.668;37.858;2024-02-26T18:47:37;100809.81;;;-4.57;65.25
34674;BME280;20879;55.668;37.858;2024-02-26T18:52:50;100814.44;;;-4.63;65.03
34674;BME280;20879;55.668;37.858;2024-02-26T18:57:57;100806.47;;;-4.82;64.80
34674;BME280;20879;55.668;37.858;2024-02-26T19:03:13;100822.22;;;-4.86;65.52
34674;BME280;20879;55.668;37.858;2024-02-26T19:08:21;100803.16;;;-5.08;65.55
34674;BME280;20879;55.668;37.858;2024-02-26T19:13:33;100813.66;;;-5.02;66.18
34674;BME280;20879;55.668;37.858;2024-02-26T19:18:41;100808.72;;;-5.00;66.06
34674;BME280;20879;55.668;37.858;2024-02-26T19:23:53;100823.56;;;-5.05;66.28
34674;BME280;20879;55.668;37.858;2024-02-26T19:28:59;100816.34;;;-5.25;66.34
34674;BME280;20879;55.668;37.858;2024-02-26T19:34:13;100829.94;;;-5.23;66.81
34674;BME280;20879;55.668;37.858;2024-02-26T19:39:20;100829.25;;;-5.21;67.06
34674;BME280;20879;55.668;37.858;2024-02-26T19:44:27;100818.63;;;-5.29;66.78
34674;BME280;20879;55.668;37.858;2024-02-26T19:49:35;100829.06;;;-5.24;67.10
34674;BME280;20879;55.668;37.858;2024-02-26T19:54:41;100827.00;;;-5.30;67.12
34674;BME280;20879;55.668;37.858;2024-02-26T19:59:51;100835.94;;;-5.21;67.60
34674;BME280;20879;55.668;37.858;2024-02-26T20:04:58;100820.25;;;-5.42;67.83
34674;BME280;20879;55.668;37.858;2024-02-26T20:10:07;100820.47;;;-5.39;68.12
34674;BME280;20879;55.668;37.858;2024-02-26T20:15:17;100824.09;;;-5.48;68.03
34674;BME280;20879;55.668;37.858;2024-02-26T20:20:32;100828.19;;;-5.50;67.83
34674;BME280;20879;55.668;37.858;2024-02-26T20:25:51;100838.66;;;-5.57;68.32
34674;BME280;20879;55.668;37.858;2024-02-26T20:30:59;100843.59;;;-5.58;67.99
34674;BME280;20879;55.668;37.858;2024-02-26T20:36:08;100830.66;;;-5.63;69.20
34674;BME280;20879;55.668;37.858;2024-02-26T20:41:16;100839.75;;;-5.53;68.45
34674;BME280;20879;55.668;37.858;2024-02-26T20:46:22;100843.59;;;-5.58;68.23
34674;BME280;20879;55.668;37.858;2024-02-26T20:51:30;100838.34;;;-5.62;68.63
34674;BME280;20879;55.668;37.858;2024-02-26T20:56:35;100841.41;;;-5.66;68.83
34674;BME280;20879;55.668;37.858;2024-02-26T21:01:41;100811.53;;;-5.85;69.27
34674;BME280;20879;55.668;37.858;2024-02-26T21:06:50;100835.75;;;-5.75;69.10
34674;BME280;20879;55.668;37.858;2024-02-26T21:11:56;100837.88;;;-5.81;69.11
34674;BME280;20879;55.668;37.858;2024-02-26T21:17:01;100841.81;;;-5.85;69.44
34674;BME280;20879;55.668;37.858;2024-02-26T21:22:19;100832.19;;;-5.90;69.50
34674;BME280;20879;55.668;37.858;2024-02-26T21:27:38;100843.16;;;-5.90;69.78
34674;BME280;20879;55.668;37.858;2024-02-26T21:32:48;100843.78;;;-6.06;70.04
34674;BME280;20879;55.668;37.858;2024-02-26T21:38:02;100854.97;;;-6.14;69.96
34674;BME280;20879;55.668;37.858;2024-02-26T21:43:13;100851.91;;;-6.22;70.03
34674;BME280;20879;55.668;37.858;2024-02-26T21:48:21;100859.81;;;-6.29;70.47
34674;BME280;20879;55.668;37.858;2024-02-26T21:53:38;100859.16;;;-6.26;70.69
34674;BME280;20879;55.668;37.858;2024-02-26T21:58:46;100824.66;;;-6.63;71.18
34674;BME280;20879;55.668;37.858;2024-02-26T22:04:00;100858.16;;;-6.40;71.42
34674;BME280;20879;55.668;37.858;2024-02-26T22:09:19;100842.19;;;-6.41;71.35
34674;BME280;20879;55.668;37.858;2024-02-26T22:14:26;100870.44;;;-6.33;70.76
34674;BME280;20879;55.668;37.858;2024-02-26T22:19:39;100879.22;;;-6.40;71.60
34674;BME280;20879;55.668;37.858;2024-02-26T22:24:56;100872.97;;;-6.45;72.13
34674;BME280;20879;55.668;37.858;2024-02-26T22:30:02;100870.13;;;-6.38;71.92
34674;BME280;20879;55.668;37.858;2024-02-26T22:35:16;100871.66;;;-6.40;72.32
34674;BME280;20879;55.668;37.858;2024-02-26T22:40:30;100873.63;;;-6.47;72.05
34674;BME280;20879;55.668;37.858;2024-02-26T22:45:35;100896.94;;;-6.50;72.58
34674;BME280;20879;55.668;37.858;2024-02-26T22:50:43;100899.94;;;-6.56;72.42
34674;BME280;20879;55.668;37.858;2024-02-26T22:55:57;100909.31;;;-6.53;72.76
34674;BME280;20879;55.668;37.858;2024-02-26T23:01:03;100923.47;;;-6.55;72.47
34674;BME280;20879;55.668;37.858;2024-02-26T23:06:20;100929.81;;;-6.60;73.01
34674;BME280;20879;55.668;37.858;2024-02-26T23:11:32;100921.38;;;-6.61;73.11
34674;BME280;20879;55.668;37.858;2024-02-26T23:16:41;100934.84;;;-6.60;73.42
34674;BME280;20879;55.668;37.858;2024-02-26T23:21:51;100931.78;;;-6.56;73.57
34674;BME280;20879;55.668;37.858;2024-02-26T23:27:01;100932.56;;;-6.57;73.49
34674;BME280;20879;55.668;37.858;2024-02-26T23:32:12;100934.31;;;-6.56;73.15
34674;BME280;20879;55.668;37.858;2024-02-26T23:37:27;100928.16;;;-6.72;73.40
34674;BME280;20879;55.668;37.858;2024-02-26T23:42:39;100932.06;;;-6.75;73.94
34674;BME280;20879;55.668;37.858;2024-02-26T23:48:04;100927.63;;;-6.68;73.96
34674;BME280;20879;55.668;37.858;2024-02-26T23:53:16;100932.31;;;-6.72;74.24
34674;BME280;20879;55.668;37.858;2024-02-26T23:58:30;100909.16;;;-6.90;74.13
